Hovedside
METAR-TAF:

METAR-TAF

Lufthavner :

Wellington internasjonale lufthavn

Wellington, New Zealand

breddegrad: 41-20S, lengdegrad: 174-48E, høyde over havet: 12 m

Gjeldene værobservasjon

Denne rapporten ble laget for 25 minutter siden, klokken 02:30 UTC
Vind 6 kt fra Sør-sørvest
Temperatur 12°C
Luftfuktighet 76%
Trykk 1014 hPa
Sikt 10 km eller mer

METAR: NZWN 150230Z AUTO 21006KT 9999 NCD 12/08 Q1014

Tid: 14:55 (02:55 UTC)

Varsel

Denne rapporten ble laget for 52 minutter siden, klokken 02:03 UTC
Varsel gyldig fra 15. klokken 03 UTC til 16. klokken 06 UTC
Vind 2 kt fra skiftende retning
Sikt 10 km eller mer
Få skyer i en høyde av 6000 ft
Fra 15. klokken 0800 UTC
Vind 10 kt fra Nord-nordøst
Sikt 10 km eller mer
Brutte skyer i en høyde av 4000 ft
lette regnbyger
Midlertidig
fra 15. klokken 10 UTC til 15. klokken 18 UTC
Sikt: 7000 m
regn,

TAF: NZWN 150203Z 1503/1606 VRB02KT 9999 FEW060 FM150800 02010KT 9999 -SHRA BKN040 TEMPO 1510/1518 7000 RA

Værobservasjoner og værvarsel for over 4000 flyplasser (METAR- og TAF-rapporter).

Tilgjengelige stasjoner er representert av de røde og gule prikkene på kartet.

Hold musepekeren over prikken for å se navnet på stasjonen.

Klikk så for å se værobservasjoner og -varsler.

For å forandre kartet kan du klikke på den grønne knappen med svart kryss for å zoome inn, på den grønne knappen med strek for å zoome ut, eller på de grønne pilene for å se tilstøtende kart.


METAR-TAF: